createdAt,value
2023-01-29T00:00:15.677Z,97601.16
2023-01-29T00:02:44.012Z,97612.09
2023-01-29T00:08:00.323Z,97605.81
2023-01-29T00:10:20.966Z,97604.16
2023-01-29T00:10:28.526Z,97610.31
2023-01-29T00:12:57.918Z,97604.28
2023-01-29T00:15:25.968Z,97604.72
2023-01-29T00:17:54.023Z,97604.44
2023-01-29T00:20:22.175Z,97591.59
2023-01-29T00:22:50.227Z,97592.53
2023-01-29T00:25:18.463Z,97596.47
2023-01-29T00:27:46.572Z,97603.63
2023-01-29T00:30:19.602Z,97591.59
2023-01-29T00:32:48.083Z,97595.25
2023-01-29T00:35:16.174Z,97597.19
2023-01-29T00:37:44.295Z,97602.78
2023-01-29T00:40:13.224Z,97589.91
2023-01-29T00:42:58.901Z,97591.59
2023-01-29T00:45:28.278Z,97597.72
2023-01-29T00:47:56.424Z,97594.44
2023-01-29T00:50:24.462Z,97597.84
2023-01-29T00:52:54.599Z,97600.59
2023-01-29T00:55:22.951Z,97596.34
2023-01-29T00:57:51.269Z,97598.56
2023-01-29T01:00:20.820Z,97594.72
2023-01-29T01:03:07.709Z,97599.09
2023-01-29T01:05:36.778Z,97591.72
2023-01-29T01:08:25.596Z,97595.94
2023-01-29T01:11:00.683Z,97596.47
2023-01-29T01:13:29.045Z,97593.88
2023-01-29T01:15:58.538Z,97599.91
2023-01-29T01:18:31.572Z,97600.44
2023-01-29T01:20:59.759Z,97597.44
2023-01-29T01:23:28.215Z,97596.34
2023-01-29T01:25:56.323Z,97595.25
2023-01-29T01:28:24.418Z,97590.75
2023-01-29T01:30:52.554Z,97587.63
2023-01-29T01:33:20.627Z,97594.19
2023-01-29T01:35:50.158Z,97591.41
2023-01-29T01:38:18.195Z,97596.91
2023-01-29T01:40:47.582Z,97608.69
2023-01-29T01:43:15.730Z,97601.56
2023-01-29T01:45:46.617Z,97591.16
2023-01-29T01:48:21.389Z,97603.06
2023-01-29T01:50:54.594Z,97599.66
2023-01-29T01:53:28.087Z,97587.03
2023-01-29T01:56:02.199Z,97594.97
2023-01-29T01:58:35.859Z,97587.63
2023-01-29T02:01:05.906Z,97585.97
2023-01-29T02:03:54.767Z,97582.81
2023-01-29T02:06:43.479Z,97585.56
2023-01-29T02:09:37.714Z,97585.81
2023-01-29T02:12:08.370Z,97593.22
2023-01-29T02:14:40.349Z,97594.31
2023-01-29T02:17:12.816Z,97597.88
2023-01-29T02:19:54.127Z,97604.00
2023-01-29T02:23:08.668Z,97596.22
2023-01-29T02:25:59.005Z,97594.31
2023-01-29T02:28:48.875Z,97591.59
2023-01-29T02:31:27.269Z,97598.94
2023-01-29T02:34:08.923Z,97607.56
2023-01-29T02:36:45.900Z,97597.88
2023-01-29T02:39:22.226Z,97591.44
2023-01-29T02:42:00.789Z,97596.50
2023-01-29T02:44:38.961Z,97591.66
2023-01-29T02:47:18.913Z,97594.16
2023-01-29T02:51:27.124Z,97587.03
2023-01-29T02:58:18.251Z,97584.44
2023-01-29T03:00:50.424Z,97576.94
2023-01-29T03:03:24.610Z,97583.22
2023-01-29T03:06:02.199Z,97587.47
2023-01-29T03:08:42.924Z,97589.50
2023-01-29T03:11:18.597Z,97593.63
2023-01-29T03:13:52.394Z,97588.13
2023-01-29T03:16:28.981Z,97591.97
2023-01-29T03:19:03.231Z,97595.28
2023-01-29T03:21:55.286Z,97584.03
2023-01-29T03:24:52.749Z,97587.75
2023-01-29T03:27:51.587Z,97590.88
2023-01-29T03:30:39.406Z,97586.91
2023-01-29T03:33:27.343Z,97588.69
2023-01-29T03:36:03.875Z,97593.22
2023-01-29T03:38:32.159Z,97585.94
2023-01-29T03:41:09.433Z,97582.13
2023-01-29T03:43:48.742Z,97583.06
2023-01-29T03:46:29.252Z,97580.34
2023-01-29T03:49:08.377Z,97573.91
2023-01-29T03:51:45.422Z,97581.06
2023-01-29T03:54:26.386Z,97583.50
2023-01-29T03:57:03.876Z,97575.41
2023-01-29T03:59:42.437Z,97578.28
2023-01-29T04:02:27.931Z,97584.88
2023-01-29T04:05:08.419Z,97576.91
2023-01-29T04:07:48.491Z,97581.19
2023-01-29T04:10:20.296Z,97577.75
2023-01-29T04:12:53.499Z,97584.84
2023-01-29T04:15:23.322Z,97579.81
2023-01-29T04:17:54.064Z,97578.84
2023-01-29T04:20:30.985Z,97573.09
2023-01-29T04:22:59.425Z,97575.28
2023-01-29T04:25:37.343Z,97583.78
2023-01-29T04:28:10.491Z,97582.81
2023-01-29T04:30:47.823Z,97581.44
2023-01-29T04:33:30.192Z,97582.28
2023-01-29T04:36:23.185Z,97581.31
2023-01-29T04:39:05.420Z,97585.00
2023-01-29T04:41:40.567Z,97582.16
2023-01-29T04:44:18.063Z,97585.28
2023-01-29T04:46:53.850Z,97582.41
2023-01-29T04:49:35.977Z,97573.09
2023-01-29T04:52:13.080Z,97584.59
2023-01-29T04:54:56.328Z,97585.81
2023-01-29T04:57:30.384Z,97582.69
2023-01-29T05:00:05.374Z,97575.84
2023-01-29T05:02:39.254Z,97583.78
2023-01-29T05:05:09.387Z,97585.69
2023-01-29T05:07:41.485Z,97585.94
2023-01-29T05:10:13.064Z,97579.38
2023-01-29T05:12:43.885Z,97576.53
2023-01-29T05:15:17.239Z,97587.88
2023-01-29T05:17:45.377Z,97576.25
2023-01-29T05:20:14.159Z,97581.84
2023-01-29T05:22:45.502Z,97578.56
2023-01-29T05:25:24.173Z,97588.84
2023-01-29T05:28:06.303Z,97588.41
2023-01-29T05:30:37.580Z,97597.41
2023-01-29T05:33:12.437Z,97596.31
2023-01-29T05:35:40.531Z,97594.13
2023-01-29T05:38:10.483Z,97590.03
2023-01-29T05:40:39.387Z,97589.78
2023-01-29T05:43:14.668Z,97588.66
2023-01-29T05:45:42.713Z,97582.66
2023-01-29T05:48:10.847Z,97576.09
2023-01-29T05:50:38.927Z,97560.00
2023-01-29T05:53:07.012Z,97544.09
2023-01-29T05:55:36.735Z,97545.91
2023-01-29T05:58:06.040Z,97539.59
2023-01-29T06:00:34.184Z,97541.66
2023-01-29T06:03:02.371Z,97547.38
2023-01-29T06:05:30.489Z,97564.75
2023-01-29T06:07:58.712Z,97556.69
2023-01-29T06:10:26.732Z,97556.94
2023-01-29T06:12:56.074Z,97557.66
2023-01-29T06:15:26.323Z,97561.47
2023-01-29T06:17:55.055Z,97570.91
2023-01-29T06:20:23.645Z,97560.91
2023-01-29T06:22:51.730Z,97561.63
2023-01-29T06:25:19.810Z,97566.53
2023-01-29T06:27:51.144Z,97572.00
2023-01-29T06:30:20.861Z,97570.66
2023-01-29T06:32:48.939Z,97578.28
2023-01-29T06:35:17.369Z,97577.72
2023-01-29T06:37:45.431Z,97586.06
2023-01-29T06:40:14.764Z,97575.13
2023-01-29T06:42:44.669Z,97573.63
2023-01-29T06:45:14.068Z,97571.44
2023-01-29T06:47:46.100Z,97570.53
2023-01-29T06:50:14.735Z,97572.81
2023-01-29T06:52:42.950Z,97581.84
2023-01-29T06:55:11.206Z,97575.97
2023-01-29T06:57:39.257Z,97578.00
2023-01-29T07:00:10.169Z,97585.94
2023-01-29T07:02:38.460Z,97587.03
2023-01-29T07:05:08.831Z,97584.28
2023-01-29T07:07:37.679Z,97585.13
2023-01-29T07:10:07.269Z,97585.41
2023-01-29T07:12:35.380Z,97576.50
2023-01-29T07:15:03.656Z,97575.28
2023-01-29T07:17:31.710Z,97576.78
2023-01-29T07:19:59.713Z,97577.72
2023-01-29T07:22:29.024Z,97577.31
2023-01-29T07:24:57.110Z,97589.34
2023-01-29T07:27:25.297Z,97582.94
2023-01-29T07:29:53.346Z,97597.03
2023-01-29T07:32:21.507Z,97600.97
2023-01-29T07:34:49.521Z,97600.56
2023-01-29T07:37:41.677Z,97599.06
2023-01-29T07:40:13.346Z,97599.59
2023-01-29T07:42:42.221Z,97605.91
2023-01-29T07:45:11.902Z,97607.00
2023-01-29T07:47:40.154Z,97612.22
2023-01-29T07:50:09.141Z,97608.00
2023-01-29T07:52:37.852Z,97610.03
2023-01-29T07:55:06.883Z,97613.72
2023-01-29T07:57:36.988Z,97617.41
2023-01-29T08:00:06.068Z,97623.16
2023-01-29T08:02:40.759Z,97624.78
2023-01-29T08:05:11.789Z,97622.34
2023-01-29T08:07:40.096Z,97621.66
2023-01-29T08:10:09.607Z,97626.72
2023-01-29T08:12:39.119Z,97615.34
2023-01-29T08:15:10.194Z,97618.22
2023-01-29T08:18:06.428Z,97622.63
2023-01-29T08:20:34.535Z,97635.03
2023-01-29T08:23:04.471Z,97634.41
2023-01-29T08:25:32.950Z,97634.66
2023-01-29T08:28:03.087Z,97635.75
2023-01-29T08:30:33.930Z,97637.13
2023-01-29T08:33:04.113Z,97635.22
2023-01-29T08:35:32.566Z,97641.91
2023-01-29T08:38:03.273Z,97636.44
2023-01-29T08:40:34.931Z,97646.28
2023-01-29T08:43:15.515Z,97649.06
2023-01-29T08:45:45.005Z,97653.69
2023-01-29T08:48:13.555Z,97647.25
2023-01-29T08:50:41.616Z,97647.25
2023-01-29T08:53:34.556Z,97645.09
2023-01-29T08:56:27.801Z,97643.28
2023-01-29T08:59:00.691Z,97641.41
2023-01-29T09:01:58.474Z,97639.59
2023-01-29T09:04:51.386Z,97647.53
2023-01-29T09:07:50.215Z,97645.88
2023-01-29T09:10:19.535Z,97651.09
2023-01-29T09:12:47.707Z,97648.22
2023-01-29T09:15:17.719Z,97652.75
2023-01-29T09:17:46.030Z,97660.97
2023-01-29T09:20:39.347Z,97663.28
2023-01-29T09:23:08.912Z,97657.78
2023-01-29T09:25:37.448Z,97650.81
2023-01-29T09:28:07.074Z,97655.50
2023-01-29T09:30:38.126Z,97662.72
2023-01-29T09:33:06.809Z,97660.69
2023-01-29T09:35:35.607Z,97660.97
2023-01-29T09:38:03.710Z,97661.09
2023-01-29T09:40:39.412Z,97659.28
2023-01-29T09:43:15.504Z,97652.19
2023-01-29T09:45:54.194Z,97641.94
2023-01-29T09:48:26.264Z,97632.50
2023-01-29T09:50:58.753Z,97625.91
2023-01-29T09:53:35.254Z,97619.34
2023-01-29T09:56:10.412Z,97607.84
2023-01-29T09:58:41.633Z,97612.34
2023-01-29T10:01:18.974Z,97602.63
2023-01-29T10:04:13.730Z,97585.78
2023-01-29T10:06:58.788Z,97578.47
2023-01-29T10:10:00.761Z,97586.00
2023-01-29T10:12:54.475Z,97593.78
2023-01-29T10:15:42.758Z,97581.72
2023-01-29T10:18:37.054Z,97583.22
2023-01-29T10:21:21.131Z,97584.59
2023-01-29T10:23:53.740Z,97593.06
2023-01-29T10:26:28.158Z,97584.69
2023-01-29T10:28:58.412Z,97588.25
2023-01-29T10:31:32.767Z,97590.44
2023-01-29T10:34:11.072Z,97591.13
2023-01-29T10:36:44.249Z,97589.19
2023-01-29T10:39:18.678Z,97602.56
2023-01-29T10:42:08.491Z,97591.50
2023-01-29T10:44:55.305Z,97587.41
2023-01-29T10:48:11.087Z,97587.94
2023-01-29T10:50:50.027Z,97593.97
2023-01-29T10:53:44.101Z,97604.06
2023-01-29T10:56:30.319Z,97596.81
2023-01-29T10:59:05.314Z,97593.97
2023-01-29T11:01:33.539Z,97594.47
2023-01-29T11:04:05.278Z,97595.56
2023-01-29T11:06:37.187Z,97590.09
2023-01-29T11:09:10.734Z,97600.22
2023-01-29T11:11:47.134Z,97599.84
2023-01-29T11:14:22.769Z,97594.72
2023-01-29T11:16:51.131Z,97603.78
2023-01-29T11:19:19.719Z,97584.91
2023-01-29T11:21:59.460Z,97577.19
2023-01-29T11:24:28.102Z,97579.34
2023-01-29T11:26:59.995Z,97578.22
2023-01-29T11:29:40.059Z,97565.31
2023-01-29T11:32:15.101Z,97558.44
2023-01-29T11:35:03.537Z,97548.03
2023-01-29T11:37:38.559Z,97550.63
2023-01-29T11:40:38.910Z,97550.44
2023-01-29T11:43:32.077Z,97547.19
2023-01-29T11:46:27.603Z,97557.88
2023-01-29T11:48:59.411Z,97557.03
2023-01-29T11:51:36.513Z,97552.97
2023-01-29T11:54:20.435Z,97562.81
2023-01-29T11:56:51.672Z,97550.72
2023-01-29T11:59:38.273Z,97552.66
2023-01-29T12:02:23.587Z,97539.09
2023-01-29T12:04:52.301Z,97530.00
2023-01-29T12:07:21.139Z,97517.44
2023-01-29T12:09:57.542Z,97509.19
2023-01-29T12:12:43.098Z,97510.84
2023-01-29T12:15:46.702Z,97496.47
2023-01-29T12:18:23.364Z,97494.31
2023-01-29T12:20:58.582Z,97487.53
2023-01-29T12:23:37.371Z,97480.38
2023-01-29T12:26:13.695Z,97480.22
2023-01-29T12:28:52.041Z,97468.94
2023-01-29T12:34:36.158Z,97452.25
2023-01-29T12:37:18.813Z,97447.25
2023-01-29T12:39:47.226Z,97443.16
2023-01-29T12:42:20.881Z,97442.03
2023-01-29T12:44:53.572Z,97439.50
2023-01-29T12:47:27.844Z,97436.31
2023-01-29T12:50:01.089Z,97422.50
2023-01-29T12:52:40.680Z,97420.84
2023-01-29T12:55:17.177Z,97419.91
2023-01-29T12:57:53.912Z,97417.44
2023-01-29T13:00:25.372Z,97424.94
2023-01-29T13:03:13.380Z,97407.31
2023-01-29T13:05:51.703Z,97405.06
2023-01-29T13:08:24.801Z,97408.53
2023-01-29T13:14:22.440Z,97397.94
2023-01-29T13:16:56.832Z,97399.63
2023-01-29T13:19:30.494Z,97393.63
2023-01-29T13:22:03.080Z,97393.44
2023-01-29T13:24:39.849Z,97392.81
2023-01-29T13:27:09.229Z,97387.88
2023-01-29T13:29:39.282Z,97387.28
2023-01-29T13:32:14.506Z,97391.81
2023-01-29T13:34:48.357Z,97394.72
2023-01-29T13:37:23.923Z,97399.47
2023-01-29T13:39:54.349Z,97405.50
2023-01-29T13:42:26.001Z,97399.41
2023-01-29T13:44:58.581Z,97409.72
2023-01-29T13:47:29.797Z,97405.13
2023-01-29T13:50:02.695Z,97406.13
2023-01-29T13:52:39.913Z,97399.34
2023-01-29T13:55:23.821Z,97401.06
2023-01-29T13:57:56.306Z,97406.38
2023-01-29T14:01:00.341Z,97411.81
2023-01-29T14:04:10.139Z,97408.72
2023-01-29T14:06:50.922Z,97412.56
2023-01-29T14:10:04.645Z,97412.84
2023-01-29T14:12:47.919Z,97406.59
2023-01-29T14:15:29.154Z,97401.84
2023-01-29T14:18:25.806Z,97389.09
2023-01-29T14:21:06.228Z,97386.97
2023-01-29T14:23:41.234Z,97389.00
2023-01-29T14:26:33.133Z,97383.31
2023-01-29T14:29:08.639Z,97383.72
2023-01-29T14:31:47.936Z,97388.06
2023-01-29T14:34:31.962Z,97391.31
2023-01-29T14:37:04.517Z,97396.06
2023-01-29T14:39:43.818Z,97380.94
2023-01-29T14:42:24.524Z,97391.38
2023-01-29T14:45:11.478Z,97388.84
2023-01-29T14:48:36.434Z,97383.44
2023-01-29T14:51:13.688Z,97384.94
2023-01-29T14:53:55.980Z,97391.22
2023-01-29T14:56:33.638Z,97386.97
2023-01-29T14:59:17.209Z,97380.25
2023-01-29T15:01:53.980Z,97385.63
2023-01-29T15:04:27.426Z,97372.28
2023-01-29T15:07:04.290Z,97369.38
2023-01-29T15:09:41.802Z,97378.13
2023-01-29T15:12:21.391Z,97386.75
2023-01-29T15:15:00.827Z,97394.72
2023-01-29T15:17:33.939Z,97397.03
2023-01-29T15:20:02.204Z,97402.13
2023-01-29T15:22:32.884Z,97400.72
2023-01-29T15:25:11.221Z,97398.59
2023-01-29T15:27:43.457Z,97396.00
2023-01-29T15:30:18.770Z,97391.41
2023-01-29T15:32:48.611Z,97383.44
2023-01-29T15:35:33.368Z,97390.34
2023-01-29T15:38:05.709Z,97381.28
2023-01-29T15:40:34.471Z,97374.72
2023-01-29T15:43:02.594Z,97375.69
2023-01-29T15:45:33.855Z,97380.47
2023-01-29T15:48:06.712Z,97382.31
2023-01-29T15:50:40.436Z,97390.00
2023-01-29T15:53:24.992Z,97384.63
2023-01-29T15:55:53.989Z,97383.09
2023-01-29T15:58:29.247Z,97382.25
2023-01-29T16:00:59.835Z,97375.28
2023-01-29T16:03:31.699Z,97380.25
2023-01-29T16:06:00.357Z,97383.31
2023-01-29T16:08:30.278Z,97375.78
2023-01-29T16:11:01.377Z,97387.19
2023-01-29T16:13:32.360Z,97389.59
2023-01-29T16:16:03.494Z,97396.34
2023-01-29T16:18:36.208Z,97396.78
2023-01-29T16:21:09.022Z,97388.91
2023-01-29T16:23:43.723Z,97388.25
2023-01-29T16:26:18.164Z,97383.03
2023-01-29T16:28:47.470Z,97384.22
2023-01-29T16:31:23.631Z,97385.84
2023-01-29T16:33:52.247Z,97385.84
2023-01-29T16:36:24.561Z,97392.59
2023-01-29T16:39:00.104Z,97383.31
2023-01-29T16:41:32.019Z,97387.03
2023-01-29T16:44:04.584Z,97383.09
2023-01-29T16:46:37.905Z,97388.88
2023-01-29T16:49:49.905Z,97393.84
2023-01-29T16:52:21.195Z,97394.38
2023-01-29T16:54:49.266Z,97395.94
2023-01-29T16:57:22.566Z,97392.50
2023-01-29T16:59:54.832Z,97394.44
2023-01-29T17:02:28.539Z,97401.03
2023-01-29T17:05:03.291Z,97403.09
2023-01-29T17:07:34.066Z,97400.34
2023-01-29T17:10:06.234Z,97410.75
2023-01-29T17:12:36.802Z,97419.16
2023-01-29T17:15:36.812Z,97416.44
2023-01-29T17:18:13.170Z,97412.34
2023-01-29T17:20:42.563Z,97408.59
2023-01-29T17:23:14.017Z,97391.94
2023-01-29T17:25:43.791Z,97396.75
2023-01-29T17:28:13.789Z,97395.81
2023-01-29T17:30:43.448Z,97397.06
2023-01-29T17:33:17.246Z,97392.69
2023-01-29T17:35:46.992Z,97387.66
2023-01-29T17:38:25.987Z,97390.56
2023-01-29T17:40:59.052Z,97387.84
2023-01-29T17:43:27.134Z,97379.91
2023-01-29T17:45:55.575Z,97380.19
2023-01-29T17:48:26.110Z,97385.94
2023-01-29T17:50:58.675Z,97388.13
2023-01-29T17:53:43.369Z,97379.09
2023-01-29T17:56:18.469Z,97382.94
2023-01-29T17:58:46.643Z,97379.81
2023-01-29T18:01:14.870Z,97378.69
2023-01-29T18:03:43.085Z,97373.63
2023-01-29T18:06:23.048Z,97377.22
2023-01-29T18:08:51.174Z,97374.59
2023-01-29T18:11:19.254Z,97366.38
2023-01-29T18:13:47.327Z,97369.44
2023-01-29T18:16:15.496Z,97370.25
2023-01-29T18:18:43.512Z,97378.03
2023-01-29T18:21:12.908Z,97376.13
2023-01-29T18:23:41.254Z,97373.66
2023-01-29T18:26:12.693Z,97366.84
2023-01-29T18:28:43.356Z,97369.06
2023-01-29T18:31:13.943Z,97367.38
2023-01-29T18:33:42.347Z,97368.47
2023-01-29T18:36:10.917Z,97375.28
2023-01-29T18:38:40.438Z,97381.59
2023-01-29T18:41:11.490Z,97375.03
2023-01-29T18:43:40.862Z,97369.56
2023-01-29T18:46:10.373Z,97370.81
2023-01-29T18:48:39.550Z,97370.00
2023-01-29T18:51:09.028Z,97375.50
2023-01-29T18:53:37.148Z,97374.16
2023-01-29T18:56:08.476Z,97376.47
2023-01-29T18:58:37.836Z,97371.72
2023-01-29T19:01:09.681Z,97376.66
2023-01-29T19:03:38.551Z,97381.25
2023-01-29T19:06:09.345Z,97384.72
2023-01-29T19:08:37.906Z,97384.31
2023-01-29T19:11:08.892Z,97380.88
2023-01-29T19:13:39.141Z,97384.97
2023-01-29T19:16:09.956Z,97383.06
2023-01-29T19:18:38.827Z,97395.38
2023-01-29T19:21:12.276Z,97385.69
2023-01-29T19:23:41.237Z,97398.94
2023-01-29T19:26:12.134Z,97391.81
2023-01-29T19:28:40.521Z,97400.03
2023-01-29T19:31:09.337Z,97395.38
2023-01-29T19:33:38.855Z,97399.47
2023-01-29T19:36:08.201Z,97399.91
2023-01-29T19:38:39.194Z,97394.25
2023-01-29T19:41:07.651Z,97396.72
2023-01-29T19:43:38.151Z,97401.13
2023-01-29T19:46:07.513Z,97393.34
2023-01-29T19:48:35.961Z,97404.38
2023-01-29T19:51:08.420Z,97404.53
2023-01-29T19:53:38.326Z,97400.16
2023-01-29T19:56:09.316Z,97400.69
2023-01-29T19:58:38.968Z,97402.47
2023-01-29T20:01:14.262Z,97393.06
2023-01-29T20:03:42.790Z,97388.53
2023-01-29T20:06:11.679Z,97388.81
2023-01-29T20:08:39.801Z,97390.31
2023-01-29T20:11:09.625Z,97393.69
2023-01-29T20:13:39.248Z,97389.59
2023-01-29T20:16:08.944Z,97387.44
2023-01-29T20:18:37.228Z,97385.25
2023-01-29T20:21:09.259Z,97393.19
2023-01-29T20:23:39.015Z,97393.44
2023-01-29T20:26:09.090Z,97394.13
2023-01-29T20:28:41.027Z,97395.34
2023-01-29T20:31:19.746Z,97380.19
2023-01-29T20:33:47.801Z,97374.16
2023-01-29T20:36:16.284Z,97372.41
2023-01-29T20:38:48.199Z,97369.13
2023-01-29T20:41:18.444Z,97366.38
2023-01-29T20:43:50.941Z,97362.97
2023-01-29T20:46:19.445Z,97364.75
2023-01-29T20:48:49.048Z,97350.81
2023-01-29T20:51:18.265Z,97355.75
2023-01-29T20:53:48.358Z,97348.41
2023-01-29T20:56:18.281Z,97342.38
2023-01-29T20:58:54.104Z,97342.50
2023-01-29T21:01:22.669Z,97335.56
2023-01-29T21:03:50.748Z,97333.38
2023-01-29T21:06:22.420Z,97324.63
2023-01-29T21:08:50.539Z,97325.84
2023-01-29T21:11:19.143Z,97318.19
2023-01-29T21:13:47.261Z,97321.06
2023-01-29T21:16:16.710Z,97325.44
2023-01-29T21:18:44.830Z,97322.44
2023-01-29T21:21:12.973Z,97330.06
2023-01-29T21:23:41.139Z,97341.00
2023-01-29T21:26:09.554Z,97340.75
2023-01-29T21:28:37.612Z,97332.41
2023-01-29T21:31:07.462Z,97337.56
2023-01-29T21:33:37.203Z,97344.69
2023-01-29T21:36:06.168Z,97351.66
2023-01-29T21:38:34.470Z,97355.19
2023-01-29T21:41:04.433Z,97351.09
2023-01-29T21:43:31.559Z,97349.31
2023-01-29T21:46:03.829Z,97349.59
2023-01-29T21:48:32.238Z,97343.06
2023-01-29T21:51:01.671Z,97336.63
2023-01-29T21:53:29.725Z,97337.03
2023-01-29T21:56:01.651Z,97335.94
2023-01-29T21:58:30.253Z,97345.63
2023-01-29T22:01:36.724Z,97341.22
2023-01-29T22:03:47.779Z,97333.16
2023-01-29T22:06:17.773Z,97337.72
2023-01-29T22:08:46.020Z,97339.88
2023-01-29T22:11:14.284Z,97339.75
2023-01-29T22:13:42.313Z,97337.38
2023-01-29T22:16:10.902Z,97334.28
2023-01-29T22:18:39.036Z,97330.72
2023-01-29T22:21:07.244Z,97336.59
2023-01-29T22:23:36.646Z,97334.69
2023-01-29T22:26:06.700Z,97331.69
2023-01-29T22:28:34.998Z,97329.09
2023-01-29T22:31:03.672Z,97332.78
2023-01-29T22:33:32.073Z,97336.84
2023-01-29T22:36:00.281Z,97327.81
2023-01-29T22:38:28.399Z,97325.50
2023-01-29T22:41:00.568Z,97315.13
2023-01-29T22:43:29.108Z,97306.25
2023-01-29T22:45:57.340Z,97299.72
2023-01-29T22:48:25.636Z,97288.81
2023-01-29T22:51:09.668Z,97282.78
2023-01-29T22:53:38.756Z,97279.16
2023-01-29T22:56:09.329Z,97271.63
2023-01-29T22:58:37.920Z,97259.63
2023-01-29T23:01:06.292Z,97243.63
2023-01-29T23:03:34.820Z,97237.78
2023-01-29T23:06:03.485Z,97232.75
2023-01-29T23:08:33.767Z,97229.34
2023-01-29T23:11:14.353Z,97226.34
2023-01-29T23:13:45.996Z,97229.31
2023-01-29T23:16:15.707Z,97236.69
2023-01-29T23:18:44.214Z,97230.16
2023-01-29T23:21:12.561Z,97232.88
2023-01-29T23:23:40.649Z,97240.78
2023-01-29T23:26:28.773Z,97225.66
2023-01-29T23:28:58.204Z,97219.25
2023-01-29T23:31:26.849Z,97222.38
2023-01-29T23:33:54.911Z,97222.50
2023-01-29T23:36:23.336Z,97224.13
2023-01-29T23:38:51.361Z,97226.44
2023-01-29T23:41:19.473Z,97227.69
2023-01-29T23:43:47.518Z,97220.88
2023-01-29T23:46:16.923Z,97206.56
2023-01-29T23:48:45.010Z,97203.81
2023-01-29T23:51:13.069Z,97198.88
2023-01-29T23:53:41.628Z,97207.03
2023-01-29T23:56:11.727Z,97213.50
2023-01-29T23:58:39.804Z,97204.13
